Time;durP1;ratioP1;P1;durP2;ratioP2;P2;SDS_P1;SDS_P2;PMS_P1;PMS_P2;Temp;Humidity;BMP_temperature;BMP_pressure;BME280_temperature;BME280_humidity;BME280_pressure;Samples;Min_cycle;Max_cycle;Signal;HPM_P1;HPM_P2
2022/12/06 00:01:06;;;;;;;1.20;1.10;;;;;;;0.89;100.00;96501.50;5067873;28;20274;-84
2022/12/06 00:03:33;;;;;;;1.20;1.00;;;;;;;0.83;100.00;96488.91;5060538;28;20216;-84
2022/12/06 00:06:04;;;;;;;1.77;0.80;;;;;;;0.92;100.00;96498.53;5064122;28;20228;-83
2022/12/06 00:08:32;;;;;;;0.80;0.80;;;;;;;0.87;100.00;96487.56;5080393;28;20213;-84
2022/12/06 00:11:11;;;;;;;1.00;0.90;;;;;;;0.97;100.00;96493.53;5067754;28;20219;-83
2022/12/06 00:13:39;;;;;;;1.40;0.93;;;;;;;0.91;100.00;96491.56;5080149;28;20224;-84
2022/12/06 00:16:12;;;;;;;1.47;1.07;;;;;;;0.87;100.00;96490.22;5060260;28;20201;-84
2022/12/06 00:18:41;;;;;;;1.00;0.90;;;;;;;0.83;100.00;96488.91;5073184;28;20254;-84
2022/12/06 00:21:12;;;;;;;1.00;0.90;;;;;;;0.82;100.00;96500.53;5066290;28;20233;-84
2022/12/06 00:23:41;;;;;;;1.17;1.00;;;;;;;0.81;100.00;96493.53;5067344;28;20221;-84
2022/12/06 00:26:09;;;;;;;0.93;0.90;;;;;;;0.80;100.00;96483.91;5069650;28;20231;-84
2022/12/06 00:28:38;;;;;;;1.00;0.80;;;;;;;0.79;100.00;96482.25;5063182;28;20197;-83
2022/12/06 00:31:07;;;;;;;1.10;0.70;;;;;;;0.77;100.00;96482.41;5073892;28;20313;-83
2022/12/06 00:33:35;;;;;;;0.80;0.80;;;;;;;0.74;100.00;96474.78;5070610;28;20208;-84
2022/12/06 00:36:05;;;;;;;1.23;0.90;;;;;;;0.72;100.00;96477.59;5069782;28;20214;-84
2022/12/06 00:38:35;;;;;;;0.80;0.80;;;;;;;0.68;100.00;96454.19;5069526;28;20208;-83
2022/12/06 00:41:04;;;;;;;0.80;0.80;;;;;;;0.64;100.00;96466.97;5056105;28;20217;-84
2022/12/06 00:43:32;;;;;;;0.63;0.63;;;;;;;0.64;100.00;96468.78;5071031;28;20225;-84
2022/12/06 00:46:00;;;;;;;0.67;0.67;;;;;;;0.68;100.00;96468.28;5073528;28;20212;-84
2022/12/06 00:48:28;;;;;;;0.70;0.70;;;;;;;0.62;100.00;96452.16;5072248;28;20225;-84
2022/12/06 00:50:55;;;;;;;0.80;0.80;;;;;;;0.69;100.00;96463.78;5068835;28;20210;-84
2022/12/06 00:53:23;;;;;;;1.00;0.90;;;;;;;0.57;100.00;96465.97;5064875;28;20206;-84
2022/12/06 00:55:52;;;;;;;0.90;0.80;;;;;;;0.49;100.00;96465.13;5071003;28;20210;-84
2022/12/06 00:58:19;;;;;;;0.73;0.70;;;;;;;0.46;100.00;96463.63;5072379;28;20194;-84
2022/12/06 01:00:46;;;;;;;3.73;0.90;;;;;;;0.48;100.00;96461.66;5080944;28;20257;-83
2022/12/06 01:03:14;;;;;;;1.23;0.80;;;;;;;0.48;100.00;96469.63;5064415;28;20238;-83
2022/12/06 01:05:44;;;;;;;1.07;1.00;;;;;;;0.46;100.00;96470.75;5069820;28;20235;-83
2022/12/06 01:08:12;;;;;;;1.23;0.93;;;;;;;0.42;100.00;96466.78;5070494;28;20238;-83
2022/12/06 01:10:40;;;;;;;1.30;1.00;;;;;;;0.51;100.00;96479.91;5068789;28;20233;-84
2022/12/06 01:13:10;;;;;;;0.83;0.83;;;;;;;0.52;100.00;96478.91;5068115;28;20201;-83
2022/12/06 01:15:37;;;;;;;0.70;0.70;;;;;;;0.56;100.00;96474.09;5064955;28;20237;-83
2022/12/06 01:18:05;;;;;;;0.80;0.80;;;;;;;0.42;100.00;96454.34;5065404;28;20243;-83
2022/12/06 01:20:32;;;;;;;0.70;0.70;;;;;;;0.46;100.00;96476.09;5067021;28;20211;-83
2022/12/06 01:22:59;;;;;;;0.80;0.80;;;;;;;0.44;100.00;96476.25;5069558;28;20335;-83
2022/12/06 01:25:27;;;;;;;0.70;0.70;;;;;;;0.45;100.00;96474.41;5066865;28;20204;-83
2022/12/06 01:27:54;;;;;;;0.80;0.80;;;;;;;0.36;100.00;96465.59;5072341;28;20241;-83
2022/12/06 01:30:22;;;;;;;0.80;0.80;;;;;;;0.37;100.00;96469.94;5071893;28;20205;-84
2022/12/06 01:32:49;;;;;;;1.00;0.80;;;;;;;0.24;100.00;96465.09;5078794;28;20325;-84
2022/12/06 01:35:17;;;;;;;0.70;0.70;;;;;;;0.21;100.00;96462.78;5069709;28;20228;-84
2022/12/06 01:37:44;;;;;;;1.00;0.90;;;;;;;0.20;100.00;96463.75;5079917;28;20236;-83
2022/12/06 01:40:13;;;;;;;1.80;0.90;;;;;;;0.21;100.00;96462.78;5063609;28;20212;-83
2022/12/06 01:42:40;;;;;;;0.90;0.70;;;;;;;0.28;100.00;96455.81;5084960;28;20224;-84
2022/12/06 01:45:09;;;;;;;0.73;0.73;;;;;;;0.22;100.00;96453.81;5071907;28;20229;-84
2022/12/06 01:47:41;;;;;;;0.70;0.70;;;;;;;0.29;100.00;96453.97;5079891;28;20277;-84
2022/12/06 01:50:13;;;;;;;0.70;0.70;;;;;;;0.35;100.00;96455.97;5078195;28;20208;-83
2022/12/06 01:52:47;;;;;;;0.80;0.80;;;;;;;0.38;100.00;96463.63;5072492;28;20204;-84
2022/12/06 01:55:16;;;;;;;0.70;0.70;;;;;;;0.36;100.00;96453.16;5060904;28;20293;-83
2022/12/06 01:57:43;;;;;;;0.87;0.80;;;;;;;0.30;100.00;96445.84;5067539;28;20294;-83
2022/12/06 02:00:11;;;;;;;0.87;0.87;;;;;;;0.24;100.00;96438.56;5073210;28;20929;-83
2022/12/06 02:02:40;;;;;;;1.00;0.93;;;;;;;0.23;100.00;96446.69;5072634;28;20250;-84
2022/12/06 02:05:12;;;;;;;0.77;0.77;;;;;;;0.13;100.00;96432.72;5072025;28;20245;-83
2022/12/06 02:07:40;;;;;;;0.70;0.70;;;;;;;0.19;100.00;96445.34;5068230;28;20266;-84
2022/12/06 02:10:08;;;;;;;0.80;0.80;;;;;;;0.13;100.00;96440.69;5066737;28;20211;-84
2022/12/06 02:12:35;;;;;;;0.90;0.90;;;;;;;0.09;100.00;96436.69;5066616;28;20209;-84
2022/12/06 02:15:03;;;;;;;0.70;0.70;;;;;;;0.04;100.00;96437.19;5072401;28;20217;-83
2022/12/06 02:17:44;;;;;;;0.80;0.80;;;;;;;0.09;100.00;96440.16;5066821;28;20208;-84
2022/12/06 02:20:27;;;;;;;0.80;0.80;;;;;;;0.14;100.00;96434.38;5068055;28;20230;-84
2022/12/06 02:23:12;;;;;;;0.70;0.70;;;;;;;0.14;100.00;96429.91;5067747;28;20217;-84
2022/12/06 02:26:14;;;;;;;0.97;0.90;;;;;;;0.17;100.00;96436.72;5066356;28;20223;-83
2022/12/06 02:29:10;;;;;;;1.10;1.00;;;;;;;0.23;100.00;96447.50;5036381;28;20273;-84
2022/12/06 02:31:45;;;;;;;1.00;0.80;;;;;;;0.23;100.00;96442.19;5069891;28;20200;-83
2022/12/06 02:34:17;;;;;;;0.97;0.80;;;;;;;0.21;100.00;96446.00;5072048;28;20208;-83
2022/12/06 02:36:49;;;;;;;0.70;0.70;;;;;;;0.12;100.00;96423.09;5075516;28;20204;-84
2022/12/06 02:39:24;;;;;;;0.80;0.80;;;;;;;0.06;100.00;96423.75;5079021;28;20219;-83
2022/12/06 02:41:57;;;;;;;1.10;1.00;;;;;;;0.10;100.00;96430.38;5084504;28;20236;-83
2022/12/06 02:44:29;;;;;;;0.80;0.80;;;;;;;0.03;100.00;96421.41;5071582;28;20206;-83
2022/12/06 02:46:58;;;;;;;0.77;0.77;;;;;;;0.14;100.00;96432.56;5081329;28;20220;-83
2022/12/06 02:49:32;;;;;;;0.80;0.80;;;;;;;0.13;100.00;96425.59;5075515;28;20211;-83
2022/12/06 02:51:59;;;;;;;1.13;1.00;;;;;;;0.03;100.00;96414.28;5072299;28;20209;-83
2022/12/06 02:54:29;;;;;;;0.90;0.90;;;;;;;0.06;100.00;96429.06;5070185;28;20223;-83
2022/12/06 02:56:56;;;;;;;0.80;0.80;;;;;;;0.06;100.00;96426.41;5066567;28;20298;-83
2022/12/06 02:59:23;;;;;;;0.70;0.70;;;;;;;0.07;100.00;96428.91;5078064;28;20304;-83
2022/12/06 03:01:55;;;;;;;0.60;0.60;;;;;;;0.03;100.00;96408.97;5066775;28;20224;-83
2022/12/06 03:04:53;;;;;;;0.80;0.80;;;;;;;0.06;100.00;96429.91;5075435;28;20314;-83
2022/12/06 03:07:33;;;;;;;1.40;0.80;;;;;;;0.06;100.00;96415.78;5066945;28;20264;-83
2022/12/06 03:10:17;;;;;;;0.80;0.80;;;;;;;0.02;100.00;96412.63;5084275;28;20200;-83
2022/12/06 03:13:02;;;;;;;1.77;0.80;;;;;;;0.06;100.00;96407.81;5059472;28;20208;-83
2022/12/06 03:15:40;;;;;;;1.17;0.70;;;;;;;-0.04;100.00;96400.84;5065081;28;20193;-83
2022/12/06 03:18:14;;;;;;;0.63;0.63;;;;;;;0.05;100.00;96400.84;5065821;28;20225;-83
2022/12/06 03:20:47;;;;;;;0.80;0.80;;;;;;;0.19;100.00;96406.34;5068868;28;20296;-84
2022/12/06 03:23:19;;;;;;;0.60;0.60;;;;;;;0.28;100.00;96405.34;5063085;28;20200;-84
2022/12/06 03:25:48;;;;;;;1.00;0.90;;;;;;;0.21;100.00;96396.38;5068946;28;20201;-83
2022/12/06 03:28:18;;;;;;;1.43;1.10;;;;;;;0.16;100.00;96395.22;5086265;28;20233;-84
2022/12/06 03:30:49;;;;;;;1.00;0.90;;;;;;;0.18;100.00;96395.88;5069201;28;20205;-83
2022/12/06 03:33:19;;;;;;;0.63;0.63;;;;;;;0.23;100.00;96396.22;5069354;28;20204;-83
2022/12/06 03:35:50;;;;;;;0.80;0.70;;;;;;;0.26;100.00;96403.84;5066200;28;20192;-83
2022/12/06 03:38:23;;;;;;;0.70;0.70;;;;;;;0.20;100.00;96391.22;5057892;28;20292;-83
2022/12/06 03:40:55;;;;;;;1.07;0.70;;;;;;;0.23;100.00;96401.53;5069729;28;20214;-83
2022/12/06 03:43:23;;;;;;;0.90;0.90;;;;;;;0.22;100.00;96400.72;5072594;28;20245;-84
2022/12/06 03:45:55;;;;;;;0.70;0.70;;;;;;;0.25;100.00;96407.53;5067668;28;20238;-83
2022/12/06 03:48:27;;;;;;;0.60;0.60;;;;;;;0.26;100.00;96407.31;5084413;28;20235;-84
2022/12/06 03:51:00;;;;;;;0.70;0.70;;;;;;;0.36;100.00;96393.88;5077608;28;20205;-84
2022/12/06 03:53:27;;;;;;;1.30;0.90;;;;;;;0.20;100.00;96383.28;5062660;28;20197;-84
2022/12/06 03:55:54;;;;;;;0.60;0.60;;;;;;;0.29;100.00;96398.22;5067651;28;20193;-83
2022/12/06 03:58:21;;;;;;;0.60;0.53;;;;;;;0.35;100.00;96392.22;5064116;28;20202;-83
2022/12/06 04:00:48;;;;;;;2.57;0.70;;;;;;;0.18;100.00;96372.81;5076575;28;20292;-83
2022/12/06 04:03:15;;;;;;;0.70;0.70;;;;;;;0.14;100.00;96368.00;5068670;28;20205;-83
2022/12/06 04:05:42;;;;;;;1.13;0.60;;;;;;;0.21;100.00;96384.94;5073326;28;20197;-83
2022/12/06 04:08:11;;;;;;;0.60;0.60;;;;;;;0.15;100.00;96369.66;5085849;28;20294;-83
2022/12/06 04:10:38;;;;;;;1.07;0.80;;;;;;;0.17;100.00;96383.63;5071013;28;20236;-84
2022/12/06 04:13:05;;;;;;;0.80;0.77;;;;;;;0.16;100.00;96376.66;5068494;28;20213;-83
2022/12/06 04:15:35;;;;;;;0.80;0.80;;;;;;;0.12;100.00;96367.34;5065652;28;20253;-83
2022/12/06 04:18:14;;;;;;;0.67;0.67;;;;;;;0.16;100.00;96379.28;5068969;28;20223;-83
2022/12/06 04:23:36;;;;;;;0.87;0.80;;;;;;;0.07;100.00;96375.81;5066801;28;20216;-83
2022/12/06 04:26:05;;;;;;;0.80;0.80;;;;;;;0.13;100.00;96377.78;5080254;28;20311;-83
2022/12/06 04:39:32;;;;;;;0.60;0.60;;;;;;;0.16;100.00;96360.72;5067342;28;20210;-86
2022/12/06 04:45:09;;;;;;;0.93;0.73;;;;;;;0.25;100.00;96365.88;5084906;28;20295;-82
2022/12/06 04:47:49;;;;;;;0.70;0.70;;;;;;;0.20;100.00;96357.53;5072806;28;20201;-83
2022/12/06 04:50:16;;;;;;;0.90;0.70;;;;;;;0.31;100.00;96372.31;5090232;28;20251;-83
2022/12/06 04:52:43;;;;;;;0.70;0.70;;;;;;;0.34;100.00;96374.66;5071384;28;20199;-83
2022/12/06 04:55:12;;;;;;;0.60;0.60;;;;;;;0.26;100.00;96366.66;5080333;28;20262;-83
2022/12/06 04:57:39;;;;;;;0.77;0.77;;;;;;;0.22;100.00;96360.88;5086723;28;20211;-83
2022/12/06 05:00:18;;;;;;;0.80;0.80;;;;;;;0.20;100.00;96356.72;5072103;28;20403;-83
2022/12/06 05:02:52;;;;;;;0.80;0.80;;;;;;;0.21;100.00;96363.69;5080861;28;20212;-83
2022/12/06 05:05:19;;;;;;;0.80;0.80;;;;;;;0.23;100.00;96362.53;5071550;28;20189;-83
2022/12/06 05:07:46;;;;;;;1.10;0.97;;;;;;;0.17;100.00;96357.88;5072883;28;20282;-83
2022/12/06 05:10:17;;;;;;;0.93;0.70;;;;;;;0.13;100.00;96345.09;5072299;28;20196;-83
2022/12/06 05:12:53;;;;;;;1.13;0.70;;;;;;;0.22;100.00;96352.06;5070357;28;20204;-83
2022/12/06 05:15:28;;;;;;;0.73;0.73;;;;;;;0.16;100.00;96350.91;5072164;28;20289;-83
2022/12/06 05:17:56;;;;;;;1.60;1.23;;;;;;;0.09;100.00;96338.44;5069949;28;20240;-83
2022/12/06 05:20:49;;;;;;;2.17;1.23;;;;;;;0.18;100.00;96356.88;5091863;28;20233;-83
2022/12/06 05:23:17;;;;;;;0.80;0.80;;;;;;;0.20;100.00;96348.75;5068766;28;20200;-83
2022/12/06 05:25:57;;;;;;;1.20;1.07;;;;;;;0.10;100.00;96345.41;5071613;28;20229;-83
2022/12/06 05:28:25;;;;;;;2.27;1.90;;;;;;;0.11;100.00;96350.56;5074139;28;20212;-86
2022/12/06 05:30:52;;;;;;;2.23;1.60;;;;;;;0.06;100.00;96338.81;5085689;28;20200;-85
2022/12/06 05:33:26;;;;;;;2.00;1.30;;;;;;;0.02;100.00;96329.50;5084307;28;20302;-85
2022/12/06 05:35:53;;;;;;;1.73;1.40;;;;;;;0.07;100.00;96346.59;5066848;28;20277;-85
2022/12/06 05:38:21;;;;;;;4.13;2.70;;;;;;;0.09;100.00;96359.69;5091555;28;20200;-85
2022/12/06 05:40:48;;;;;;;4.47;2.83;;;;;;;-0.04;100.00;96339.78;5070273;28;20205;-84
2022/12/06 05:43:17;;;;;;;2.03;1.40;;;;;;;-0.07;100.00;96340.09;5070379;28;20206;-84
2022/12/06 05:45:44;;;;;;;3.43;1.27;;;;;;;0.07;100.00;96351.91;5087295;28;20200;-85
2022/12/06 05:48:11;;;;;;;1.60;1.50;;;;;;;0.02;100.00;96353.38;5080937;28;20217;-85
2022/12/06 05:50:38;;;;;;;2.10;1.80;;;;;;;-0.02;100.00;96348.44;5069079;28;20219;-85
2022/12/06 05:53:08;;;;;;;3.20;2.20;;;;;;;0.02;100.00;96356.03;5066870;28;20284;-85
2022/12/06 05:55:39;;;;;;;5.00;2.50;;;;;;;-0.01;100.00;96350.09;5071958;28;20230;-85
2022/12/06 05:58:10;;;;;;;3.10;1.80;;;;;;;-0.08;100.00;96338.44;5069513;28;20201;-84
2022/12/06 06:00:38;;;;;;;2.70;2.03;;;;;;;0.02;100.00;96350.72;5070268;28;20204;-82
2022/12/06 06:03:08;;;;;;;2.10;1.90;;;;;;;0.04;100.00;96351.41;5071534;28;20206;-82
2022/12/06 06:05:55;;;;;;;0.87;0.80;;;;;;;-0.02;100.00;96347.59;5068566;28;20214;-82
2022/12/06 06:08:22;;;;;;;1.40;1.17;;;;;;;0.05;100.00;96358.38;5068175;28;20220;-82
2022/12/06 06:10:49;;;;;;;0.80;0.80;;;;;;;0.17;100.00;96359.72;5088831;28;20209;-82
2022/12/06 06:13:17;;;;;;;2.17;1.97;;;;;;;0.10;100.00;96343.59;5069205;28;20209;-82
2022/12/06 06:15:45;;;;;;;1.27;1.17;;;;;;;0.22;100.00;96338.78;5085628;28;20199;-82
2022/12/06 06:18:12;;;;;;;1.30;1.20;;;;;;;0.17;100.00;96335.81;5066702;28;20225;-82
2022/12/06 06:20:39;;;;;;;2.60;1.23;;;;;;;0.20;100.00;96352.22;5071482;28;20209;-82
2022/12/06 06:23:07;;;;;;;5.43;2.63;;;;;;;0.23;100.00;96356.41;5074492;28;20197;-82
2022/12/06 06:25:34;;;;;;;1.43;1.20;;;;;;;0.25;100.00;96343.78;5065327;28;20264;-82
2022/12/06 06:28:01;;;;;;;2.90;1.20;;;;;;;0.25;100.00;96341.97;5067333;28;20300;-82
2022/12/06 06:30:28;;;;;;;1.07;0.97;;;;;;;0.13;100.00;96313.25;5069991;28;20257;-82
2022/12/06 06:32:56;;;;;;;2.17;1.10;;;;;;;0.24;100.00;96328.84;5086970;28;20233;-82
2022/12/06 06:35:23;;;;;;;1.67;1.20;;;;;;;0.20;100.00;96331.00;5068596;28;20228;-82
2022/12/06 06:37:50;;;;;;;1.10;1.00;;;;;;;0.28;100.00;96344.25;5080870;28;20216;-82
2022/12/06 06:40:18;;;;;;;1.70;1.40;;;;;;;0.15;100.00;96317.41;5062382;28;20202;-82
2022/12/06 06:42:45;;;;;;;1.70;1.40;;;;;;;0.11;100.00;96305.44;5073533;28;20232;-81
2022/12/06 06:45:12;;;;;;;2.00;1.20;;;;;;;0.15;100.00;96308.59;5071856;28;20300;-82
2022/12/06 06:47:40;;;;;;;0.93;0.90;;;;;;;0.20;100.00;96323.03;5073377;28;20205;-82
2022/12/06 06:50:18;;;;;;;1.33;1.23;;;;;;;0.24;100.00;96326.19;5075170;28;20224;-82
2022/12/06 06:52:48;;;;;;;1.77;1.40;;;;;;;0.17;100.00;96303.97;5077448;28;20198;-82
2022/12/06 06:55:34;;;;;;;1.70;1.40;;;;;;;0.22;100.00;96321.03;5069259;28;20233;-82
2022/12/06 06:58:21;;;;;;;1.50;1.30;;;;;;;0.11;100.00;96307.25;5067768;28;20208;-82
2022/12/06 07:00:52;;;;;;;1.43;1.33;;;;;;;0.18;100.00;96310.91;5068214;28;20198;-82
2022/12/06 07:03:19;;;;;;;1.40;1.30;;;;;;;0.26;100.00;96321.50;5069256;28;20212;-82
2022/12/06 07:05:52;;;;;;;1.37;1.27;;;;;;;0.25;100.00;96317.22;5066423;28;20206;-82
2022/12/06 07:08:35;;;;;;;2.30;2.03;;;;;;;0.28;100.00;96330.16;5072074;28;20225;-82
2022/12/06 07:11:02;;;;;;;2.23;1.73;;;;;;;0.29;100.00;96324.69;5066390;28;20223;-82
2022/12/06 07:13:32;;;;;;;2.90;1.80;;;;;;;0.25;100.00;96314.56;5069139;28;20234;-82
2022/12/06 07:16:25;;;;;;;1.53;1.43;;;;;;;0.34;100.00;96321.53;5085787;28;20201;-82
2022/12/06 07:19:56;;;;;;;3.93;1.77;;;;;;;0.48;100.00;96320.84;5065232;28;20304;-82
2022/12/06 07:22:30;;;;;;;3.27;1.93;;;;;;;0.42;100.00;96316.22;5059927;28;20205;-82
2022/12/06 07:25:03;;;;;;;1.80;1.40;;;;;;;0.45;100.00;96317.69;5063282;28;20235;-82
2022/12/06 07:33:31;;;;;;;2.97;1.17;;;;;;;0.35;100.00;96315.19;4998311;28;20218;-81
2022/12/06 07:35:59;;;;;;;1.00;0.87;;;;;;;0.30;100.00;96317.53;5059525;28;20216;-82
2022/12/06 07:45:14;;;;;;;2.10;1.47;;;;;;;0.38;100.00;96323.69;5058131;28;20208;-82
2022/12/06 07:47:54;;;;;;;6.23;3.20;;;;;;;0.36;100.00;96330.16;5060494;28;20208;-81
2022/12/06 07:50:44;;;;;;;3.63;3.07;;;;;;;0.16;100.00;96310.25;5076644;28;20221;-82
2022/12/06 07:53:27;;;;;;;3.07;2.10;;;;;;;0.12;100.00;96316.88;5080681;28;20199;-81
2022/12/06 07:59:44;;;;;;;3.63;3.03;;;;;;;0.08;100.00;96319.06;5062492;28;20206;-83
2022/12/06 08:02:58;;;;;;;4.13;2.70;;;;;;;-0.08;100.00;96309.25;5065519;28;20193;-81
2022/12/06 08:09:09;;;;;;;4.67;2.90;;;;;;;-0.11;100.00;96322.03;5028515;28;20233;-81
2022/12/06 08:12:16;;;;;;;3.83;2.50;;;;;;;-0.29;100.00;96300.13;5067821;28;20213;-81
2022/12/06 08:14:54;;;;;;;4.27;2.87;;;;;;;-0.22;100.00;96315.22;5067682;28;20205;-81
2022/12/06 08:20:36;;;;;;;4.07;2.90;;;;;;;-0.19;100.00;96320.22;5067706;28;20261;-81
2022/12/06 08:26:15;;;;;;;4.43;3.57;;;;;;;-0.15;100.00;96320.69;5066597;28;20211;-81
2022/12/06 08:29:15;;;;;;;5.97;3.30;;;;;;;-0.22;100.00;96309.06;5072015;28;20209;-81
2022/12/06 08:31:42;;;;;;;6.27;3.70;;;;;;;-0.13;100.00;96324.00;5072339;28;20197;-80
2022/12/06 08:34:19;;;;;;;5.57;3.90;;;;;;;-0.14;100.00;96323.19;5071952;28;20201;-81
2022/12/06 08:36:52;;;;;;;5.17;3.30;;;;;;;-0.09;100.00;96326.19;5079706;28;20367;-81
2022/12/06 08:39:19;;;;;;;3.43;2.50;;;;;;;-0.08;100.00;96322.50;5074459;28;20203;-82
2022/12/06 08:41:56;;;;;;;3.27;2.20;;;;;;;-0.12;100.00;96315.91;5079640;28;20202;-81
2022/12/06 08:44:35;;;;;;;5.13;2.40;;;;;;;-0.01;100.00;96322.72;5076512;28;20203;-81
2022/12/06 08:47:16;;;;;;;2.00;1.70;;;;;;;-0.01;100.00;96306.78;5057312;28;20229;-81
2022/12/06 08:49:44;;;;;;;4.10;1.83;;;;;;;0.03;100.00;96297.47;5072587;28;20239;-81
2022/12/06 08:55:11;;;;;;;1.30;1.20;;;;;;;0.14;100.00;96298.97;5067285;28;20215;-81
2022/12/06 08:57:38;;;;;;;1.40;1.30;;;;;;;0.23;100.00;96303.28;5065024;28;20289;-81
2022/12/06 09:06:22;;;;;;;7.27;4.80;;;;;;;0.55;100.00;96324.47;5076152;28;20197;-82
2022/12/06 09:12:02;;;;;;;9.03;5.20;;;;;;;0.60;100.00;96306.19;5078880;28;20209;-81
2022/12/06 09:14:29;;;;;;;10.03;5.90;;;;;;;0.63;100.00;96302.38;5083159;28;20196;-81
2022/12/06 09:17:01;;;;;;;8.73;5.87;;;;;;;0.82;100.00;96312.63;5068577;28;20235;-81
2022/12/06 09:19:48;;;;;;;7.47;5.33;;;;;;;0.81;100.00;96303.00;5072667;28;20256;-81
2022/12/06 09:22:21;;;;;;;7.33;4.20;;;;;;;1.01;100.00;96319.38;5078653;28;20209;-81
2022/12/06 09:27:51;;;;;;;5.27;3.60;;;;;;;1.06;100.00;96296.59;5067469;28;20235;-81
2022/12/06 09:30:26;;;;;;;4.53;3.27;;;;;;;1.14;100.00;96295.72;5071668;28;20271;-82
2022/12/06 09:36:13;;;;;;;4.80;3.10;;;;;;;1.42;100.00;96307.56;5062953;28;20206;-81
2022/12/06 09:39:07;;;;;;;3.90;2.80;;;;;;;1.55;100.00;96308.81;5077392;28;20208;-81
2022/12/06 09:45:50;;;;;;;3.17;2.00;;;;;;;1.62;100.00;96301.78;4967293;28;20254;-81
2022/12/06 09:49:05;;;;;;;4.47;2.20;;;;;;;1.76;100.00;96299.22;4897896;29;20211;-82
2022/12/06 09:52:33;;;;;;;3.80;1.60;;;;;;;2.01;100.00;96321.16;4829335;29;20209;-81
2022/12/06 09:55:32;;;;;;;3.60;2.07;;;;;;;2.00;100.00;96300.84;4772433;30;20214;-81
2022/12/06 10:04:46;;;;;;;2.77;1.83;;;;;;;2.66;100.00;96309.91;5031858;28;20219;-82
2022/12/06 10:11:03;;;;;;;3.53;1.50;;;;;;;3.02;100.00;96302.03;4979827;28;20241;-82
2022/12/06 10:14:31;;;;;;;3.13;2.10;;;;;;;3.12;100.00;96285.75;5061588;28;20290;-82
2022/12/06 10:17:21;;;;;;;1.80;1.47;;;;;;;3.32;100.00;96279.63;5059067;28;20227;-82
2022/12/06 10:24:44;;;;;;;3.00;1.80;;;;;;;3.93;100.00;96281.94;5067464;28;20236;-82
2022/12/06 10:27:28;;;;;;;1.90;1.60;;;;;;;4.10;100.00;96296.72;4974799;28;20336;-82
2022/12/06 10:33:52;;;;;;;1.90;1.50;;;;;;;4.49;100.00;96294.41;4959504;28;20267;-82
2022/12/06 10:48:26;;;;;;;2.13;1.77;;;;;;;5.71;100.00;96270.53;4756851;29;20283;-87
2022/12/06 10:51:16;;;;;;;3.17;1.67;;;;;;;5.99;100.00;96279.31;4853082;29;20337;-85
2022/12/06 10:53:56;;;;;;;2.37;1.73;;;;;;;6.23;100.00;96275.22;4984987;28;20216;-84
2022/12/06 10:56:26;;;;;;;2.27;1.70;;;;;;;6.47;100.00;96274.59;4987532;28;20222;-85
2022/12/06 10:59:15;;;;;;;2.00;1.73;;;;;;;6.66;100.00;96270.28;5045815;28;20211;-85
2022/12/06 11:05:06;;;;;;;2.00;1.80;;;;;;;6.91;100.00;96261.56;5069485;28;20273;-84
2022/12/06 11:08:20;;;;;;;2.00;1.80;;;;;;;6.87;100.00;96260.34;5036040;28;20205;-85
2022/12/06 11:10:52;;;;;;;2.80;1.70;;;;;;;6.98;100.00;96257.84;5035729;28;20229;-84
2022/12/06 11:13:35;;;;;;;2.20;1.80;;;;;;;7.18;100.00;96266.66;5055877;28;20206;-86
2022/12/06 11:16:22;;;;;;;2.03;1.73;;;;;;;7.45;98.11;96245.09;5061854;28;20209;-84
2022/12/06 11:18:51;;;;;;;1.80;1.50;;;;;;;7.68;99.43;96261.50;5050429;28;20229;-85
2022/12/06 11:21:38;;;;;;;2.00;1.80;;;;;;;7.75;98.87;96253.41;5063012;28;20263;-84
2022/12/06 11:24:47;;;;;;;2.10;1.73;;;;;;;7.97;97.53;96249.38;5075853;28;20209;-85
2022/12/06 11:30:45;;;;;;;2.17;1.90;;;;;;;8.81;88.43;96259.72;4968320;28;20284;-84
2022/12/06 11:33:21;;;;;;;1.80;1.60;;;;;;;8.82;89.16;96247.91;5007041;28;20215;-84
2022/12/06 11:35:55;;;;;;;2.60;1.50;;;;;;;8.86;87.40;96249.09;4989108;28;20241;-84
2022/12/06 11:38:22;;;;;;;1.70;1.50;;;;;;;8.82;86.70;96255.16;4990938;28;20314;-84
2022/12/06 11:40:51;;;;;;;2.20;1.83;;;;;;;8.56;88.74;96251.66;4992902;28;20254;-84
2022/12/06 11:46:48;;;;;;;;;;;;;;;;;;;;;
2022/12/06 11:49:51;;;;;;;1.30;1.20;;;;;;;8.53;87.11;96237.81;5055460;28;20229;-84
2022/12/06 11:52:41;;;;;;;2.60;1.40;;;;;;;8.73;84.07;96241.16;5033307;28;20273;-83
2022/12/06 11:55:34;;;;;;;3.20;1.90;;;;;;;8.26;87.36;96240.69;5009654;28;20250;-84
2022/12/06 11:58:43;;;;;;;2.50;1.80;;;;;;;8.30;91.44;96231.16;5053894;28;20234;-83
2022/12/06 12:01:45;;;;;;;2.47;2.13;;;;;;;8.42;91.41;96238.53;5066086;28;20224;-83
2022/12/06 12:07:37;;;;;;;2.20;2.00;;;;;;;8.22;96.22;96231.41;5046323;28;20210;-83
2022/12/06 12:10:44;;;;;;;3.10;2.07;;;;;;;8.25;94.85;96240.91;5054542;28;20220;-83
2022/12/06 12:16:18;;;;;;;8.37;4.33;;;;;;;6.41;100.00;96223.66;5064453;28;20213;-83
2022/12/06 12:18:52;;;;;;;4.73;3.17;;;;;;;5.69;100.00;96233.25;5068208;28;20259;-82
2022/12/06 12:21:37;;;;;;;4.50;2.40;;;;;;;5.20;100.00;96221.97;5067423;28;20241;-82
2022/12/06 12:24:06;;;;;;;2.40;2.03;;;;;;;5.00;100.00;96221.88;5062070;28;20225;-83
2022/12/06 12:26:44;;;;;;;2.90;1.83;;;;;;;4.75;100.00;96228.75;5068291;28;20304;-83
2022/12/06 12:29:17;;;;;;;9.93;2.10;;;;;;;4.54;100.00;96233.13;5065254;28;20270;-82
2022/12/06 12:32:03;;;;;;;1.50;1.30;;;;;;;4.29;100.00;96215.06;5065318;28;20232;-83
2022/12/06 12:34:44;;;;;;;2.20;1.40;;;;;;;4.12;100.00;96214.53;5067189;28;20198;-82
2022/12/06 12:37:21;;;;;;;2.00;1.30;;;;;;;4.07;100.00;96219.63;5074755;28;20214;-82
2022/12/06 12:39:53;;;;;;;1.73;1.60;;;;;;;3.99;100.00;96215.25;5053631;28;20209;-83
2022/12/06 12:42:28;;;;;;;2.40;1.37;;;;;;;3.99;100.00;96225.09;5066631;28;20201;-83
2022/12/06 12:45:00;;;;;;;2.33;1.67;;;;;;;3.95;100.00;96218.47;5068666;28;20201;-83
2022/12/06 12:47:28;;;;;;;2.67;1.90;;;;;;;4.02;100.00;96214.03;5064584;28;20205;-83
2022/12/06 12:50:02;;;;;;;4.07;1.60;;;;;;;4.10;100.00;96232.59;5065028;28;20228;-82
2022/12/06 12:52:31;;;;;;;4.17;2.20;;;;;;;4.04;100.00;96226.19;5064335;28;20303;-82
2022/12/06 12:55:01;;;;;;;2.93;1.77;;;;;;;4.04;100.00;96226.19;5065830;28;20202;-82
2022/12/06 12:57:28;;;;;;;2.87;2.23;;;;;;;3.90;100.00;96227.09;5067041;28;20209;-83
2022/12/06 12:59:55;;;;;;;2.57;1.83;;;;;;;3.90;100.00;96237.78;5067924;28;20202;-82
2022/12/06 13:02:26;;;;;;;2.47;1.80;;;;;;;3.88;100.00;96230.97;5064659;28;20202;-82
2022/12/06 13:08:36;;;;;;;2.30;2.10;;;;;;;3.75;100.00;96229.81;4990979;28;20223;-82
2022/12/06 13:14:43;;;;;;;2.63;1.87;;;;;;;3.39;100.00;96208.50;5068501;28;20213;-83
2022/12/06 13:17:13;;;;;;;3.83;2.00;;;;;;;3.37;100.00;96215.03;5059274;28;20198;-83
2022/12/06 13:19:45;;;;;;;3.47;2.07;;;;;;;3.27;100.00;96209.19;5070828;28;20335;-83
2022/12/06 13:22:26;;;;;;;4.03;2.70;;;;;;;3.18;100.00;96208.47;5066441;28;20202;-82
2022/12/06 13:25:11;;;;;;;2.93;2.30;;;;;;;3.22;100.00;96206.25;5074429;28;20205;-82
2022/12/06 13:27:44;;;;;;;3.97;2.73;;;;;;;3.19;100.00;96203.97;5057331;28;20213;-82
2022/12/06 13:30:22;;;;;;;3.07;2.23;;;;;;;3.27;100.00;96211.84;5072858;28;20193;-82
2022/12/06 13:33:07;;;;;;;3.23;2.17;;;;;;;3.21;100.00;96194.75;5068045;28;20190;-82
2022/12/06 13:35:55;;;;;;;2.80;2.30;;;;;;;3.23;100.00;96211.38;5070350;28;20209;-82
2022/12/06 13:38:28;;;;;;;3.43;2.60;;;;;;;3.15;100.00;96206.16;5092783;28;20209;-83
2022/12/06 13:40:59;;;;;;;5.83;3.27;;;;;;;3.15;100.00;96206.16;5070550;28;20209;-82
2022/12/06 13:43:57;;;;;;;9.53;5.07;;;;;;;3.18;100.00;96216.47;5065174;28;20202;-82
2022/12/06 13:46:34;;;;;;;6.07;4.27;;;;;;;3.08;100.00;96193.75;5065952;28;20217;-83
2022/12/06 13:49:20;;;;;;;2.70;2.10;;;;;;;3.17;100.00;96208.66;5066949;28;20208;-82
2022/12/06 13:51:49;;;;;;;2.53;2.00;;;;;;;3.16;100.00;96207.00;5062703;28;20264;-83
2022/12/06 13:54:31;;;;;;;3.87;2.30;;;;;;;3.10;100.00;96210.41;5072287;28;20197;-82
2022/12/06 13:57:20;;;;;;;6.43;2.67;;;;;;;3.02;100.00;96192.69;5067991;28;20212;-82
2022/12/06 13:59:47;;;;;;;7.27;5.20;;;;;;;2.99;100.00;96185.03;5085250;28;20206;-82
2022/12/06 14:02:51;;;;;;;6.33;4.60;;;;;;;3.08;100.00;96199.09;5070649;28;20197;-82
2022/12/06 14:05:59;;;;;;;2.13;1.70;;;;;;;2.98;100.00;96200.22;5068514;28;20213;-82
2022/12/06 14:08:39;;;;;;;3.20;1.67;;;;;;;2.94;100.00;96209.63;5070679;28;20213;-82
2022/12/06 14:11:17;;;;;;;5.97;3.20;;;;;;;2.89;100.00;96204.00;5068861;28;20213;-82